sensor_id;sensor_type;location;lat;lon;timestamp;temperature;humidity
67054;SHT31;53960;51.826;5.850;2023-04-30T00:02:06;10.16;81.12
67054;SHT31;53960;51.826;5.850;2023-04-30T00:04:31;10.11;81.26
67054;SHT31;53960;51.826;5.850;2023-04-30T00:06:57;10.14;81.17
67054;SHT31;53960;51.826;5.850;2023-04-30T00:09:22;10.11;81.23
67054;SHT31;53960;51.826;5.850;2023-04-30T00:11:47;10.12;81.23
67054;SHT31;53960;51.826;5.850;2023-04-30T00:14:13;10.12;81.17
67054;SHT31;53960;51.826;5.850;2023-04-30T00:16:38;10.09;81.28
67054;SHT31;53960;51.826;5.850;2023-04-30T00:19:03;10.09;81.09
67054;SHT31;53960;51.826;5.850;2023-04-30T00:21:28;10.15;81.00
67054;SHT31;53960;51.826;5.850;2023-04-30T00:23:54;10.16;80.85
67054;SHT31;53960;51.826;5.850;2023-04-30T00:26:19;10.12;80.74
67054;SHT31;53960;51.826;5.850;2023-04-30T00:28:45;10.11;80.50
67054;SHT31;53960;51.826;5.850;2023-04-30T00:31:10;10.01;80.86
67054;SHT31;53960;51.826;5.850;2023-04-30T00:33:35;9.94;80.73
67054;SHT31;53960;51.826;5.850;2023-04-30T00:36:01;10.01;80.69
67054;SHT31;53960;51.826;5.850;2023-04-30T00:38:26;10.01;80.57
67054;SHT31;53960;51.826;5.850;2023-04-30T00:40:52;9.97;80.80
67054;SHT31;53960;51.826;5.850;2023-04-30T00:43:17;9.97;80.88
67054;SHT31;53960;51.826;5.850;2023-04-30T00:45:42;9.97;80.88
67054;SHT31;53960;51.826;5.850;2023-04-30T00:48:08;9.93;81.06
67054;SHT31;53960;51.826;5.850;2023-04-30T00:50:36;9.94;81.08
67054;SHT31;53960;51.826;5.850;2023-04-30T00:53:02;9.97;81.26
67054;SHT31;53960;51.826;5.850;2023-04-30T00:55:28;9.81;81.55
67054;SHT31;53960;51.826;5.850;2023-04-30T00:57:53;9.77;81.82
67054;SHT31;53960;51.826;5.850;2023-04-30T01:00:19;9.74;81.84
67054;SHT31;53960;51.826;5.850;2023-04-30T01:02:45;9.85;81.74
67054;SHT31;53960;51.826;5.850;2023-04-30T01:05:11;9.83;81.91
67054;SHT31;53960;51.826;5.850;2023-04-30T01:07:37;9.78;81.86
67054;SHT31;53960;51.826;5.850;2023-04-30T01:10:06;9.90;81.64
67054;SHT31;53960;51.826;5.850;2023-04-30T01:15:35;9.90;81.28
67054;SHT31;53960;51.826;5.850;2023-04-30T01:18:12;9.80;81.67
67054;SHT31;53960;51.826;5.850;2023-04-30T01:20:55;9.85;81.47
67054;SHT31;53960;51.826;5.850;2023-04-30T01:24:05;9.80;81.62
67054;SHT31;53960;51.826;5.850;2023-04-30T01:27:06;9.73;81.83
67054;SHT31;53960;51.826;5.850;2023-04-30T01:29:38;9.63;82.07
67054;SHT31;53960;51.826;5.850;2023-04-30T01:32:04;9.67;82.00
67054;SHT31;53960;51.826;5.850;2023-04-30T01:34:29;9.67;82.15
67054;SHT31;53960;51.826;5.850;2023-04-30T01:37:08;9.71;82.08
67054;SHT31;53960;51.826;5.850;2023-04-30T01:39:58;9.74;82.25
67054;SHT31;53960;51.826;5.850;2023-04-30T01:42:38;9.69;82.29
67054;SHT31;53960;51.826;5.850;2023-04-30T01:51:15;9.50;82.31
67054;SHT31;53960;51.826;5.850;2023-04-30T01:53:43;9.54;82.06
67054;SHT31;53960;51.826;5.850;2023-04-30T01:56:23;9.58;82.42
67054;SHT31;53960;51.826;5.850;2023-04-30T01:58:51;9.60;82.22
67054;SHT31;53960;51.826;5.850;2023-04-30T02:01:31;9.60;81.90
67054;SHT31;53960;51.826;5.850;2023-04-30T02:03:57;9.61;82.05
67054;SHT31;53960;51.826;5.850;2023-04-30T02:06:24;9.60;81.87
67054;SHT31;53960;51.826;5.850;2023-04-30T02:08:53;9.57;82.13
67054;SHT31;53960;51.826;5.850;2023-04-30T02:11:18;9.51;82.29
67054;SHT31;53960;51.826;5.850;2023-04-30T02:13:43;9.53;82.26
67054;SHT31;53960;51.826;5.850;2023-04-30T02:16:09;9.54;82.30
67054;SHT31;53960;51.826;5.850;2023-04-30T02:18:34;9.63;82.03
67054;SHT31;53960;51.826;5.850;2023-04-30T02:21:00;9.53;82.10
67054;SHT31;53960;51.826;5.850;2023-04-30T02:23:25;9.42;82.39
67054;SHT31;53960;51.826;5.850;2023-04-30T02:25:50;9.36;82.75
67054;SHT31;53960;51.826;5.850;2023-04-30T02:28:16;9.39;82.62
67054;SHT31;53960;51.826;5.850;2023-04-30T02:30:41;9.44;82.43
67054;SHT31;53960;51.826;5.850;2023-04-30T02:33:06;9.39;82.62
67054;SHT31;53960;51.826;5.850;2023-04-30T02:35:32;9.32;82.72
67054;SHT31;53960;51.826;5.850;2023-04-30T02:37:57;9.40;82.74
67054;SHT31;53960;51.826;5.850;2023-04-30T02:40:22;9.43;82.80
67054;SHT31;53960;51.826;5.850;2023-04-30T02:42:48;9.35;83.21
67054;SHT31;53960;51.826;5.850;2023-04-30T02:45:13;9.32;83.25
67054;SHT31;53960;51.826;5.850;2023-04-30T02:47:39;9.39;82.82
67054;SHT31;53960;51.826;5.850;2023-04-30T02:50:04;9.32;82.93
67054;SHT31;53960;51.826;5.850;2023-04-30T02:52:30;9.20;83.24
67054;SHT31;53960;51.826;5.850;2023-04-30T02:54:56;9.25;83.20
67054;SHT31;53960;51.826;5.850;2023-04-30T02:57:21;9.23;83.21
67054;SHT31;53960;51.826;5.850;2023-04-30T02:59:46;9.16;83.30
67054;SHT31;53960;51.826;5.850;2023-04-30T03:02:12;9.26;83.17
67054;SHT31;53960;51.826;5.850;2023-04-30T03:04:37;9.27;82.83
67054;SHT31;53960;51.826;5.850;2023-04-30T03:07:03;9.27;82.91
67054;SHT31;53960;51.826;5.850;2023-04-30T03:09:29;9.25;83.00
67054;SHT31;53960;51.826;5.850;2023-04-30T03:11:55;9.15;83.10
67054;SHT31;53960;51.826;5.850;2023-04-30T03:14:20;9.19;82.89
67054;SHT31;53960;51.826;5.850;2023-04-30T03:16:46;9.11;83.24
67054;SHT31;53960;51.826;5.850;2023-04-30T03:19:11;9.08;83.17
67054;SHT31;53960;51.826;5.850;2023-04-30T03:21:36;9.06;83.29
67054;SHT31;53960;51.826;5.850;2023-04-30T03:24:02;9.01;83.36
67054;SHT31;53960;51.826;5.850;2023-04-30T03:26:28;8.99;83.23
67054;SHT31;53960;51.826;5.850;2023-04-30T03:28:53;9.02;83.18
67054;SHT31;53960;51.826;5.850;2023-04-30T03:31:19;9.05;83.04
67054;SHT31;53960;51.826;5.850;2023-04-30T03:33:45;8.92;83.43
67054;SHT31;53960;51.826;5.850;2023-04-30T03:36:10;8.93;83.51
67054;SHT31;53960;51.826;5.850;2023-04-30T03:38:37;8.93;83.38
67054;SHT31;53960;51.826;5.850;2023-04-30T03:41:02;8.91;83.53
67054;SHT31;53960;51.826;5.850;2023-04-30T03:43:27;8.85;83.38
67054;SHT31;53960;51.826;5.850;2023-04-30T03:45:53;8.84;83.61
67054;SHT31;53960;51.826;5.850;2023-04-30T03:48:18;8.77;83.73
67054;SHT31;53960;51.826;5.850;2023-04-30T03:50:43;8.86;83.67
67054;SHT31;53960;51.826;5.850;2023-04-30T03:53:09;8.78;83.66
67054;SHT31;53960;51.826;5.850;2023-04-30T03:55:34;8.78;83.75
67054;SHT31;53960;51.826;5.850;2023-04-30T03:58:00;8.88;83.50
67054;SHT31;53960;51.826;5.850;2023-04-30T04:00:25;8.88;83.39
67054;SHT31;53960;51.826;5.850;2023-04-30T04:02:51;8.85;83.29
67054;SHT31;53960;51.826;5.850;2023-04-30T04:05:16;8.84;83.13
67054;SHT31;53960;51.826;5.850;2023-04-30T04:07:41;8.78;83.25
67054;SHT31;53960;51.826;5.850;2023-04-30T04:10:07;8.78;83.07
67054;SHT31;53960;51.826;5.850;2023-04-30T04:12:32;8.81;82.76
67054;SHT31;53960;51.826;5.850;2023-04-30T04:14:58;8.79;82.84
67054;SHT31;53960;51.826;5.850;2023-04-30T04:17:23;8.74;83.05
67054;SHT31;53960;51.826;5.850;2023-04-30T04:19:48;8.69;83.26
67054;SHT31;53960;51.826;5.850;2023-04-30T04:22:14;8.81;82.96
67054;SHT31;53960;51.826;5.850;2023-04-30T04:24:39;8.78;82.91
67054;SHT31;53960;51.826;5.850;2023-04-30T04:27:04;8.71;82.96
67054;SHT31;53960;51.826;5.850;2023-04-30T04:29:30;8.72;82.94
67054;SHT31;53960;51.826;5.850;2023-04-30T04:31:56;8.71;82.93
67054;SHT31;53960;51.826;5.850;2023-04-30T04:34:21;8.77;82.94
67054;SHT31;53960;51.826;5.850;2023-04-30T04:36:47;8.84;82.87
67054;SHT31;53960;51.826;5.850;2023-04-30T04:39:12;8.82;82.85
67054;SHT31;53960;51.826;5.850;2023-04-30T04:41:38;8.81;83.04
67054;SHT31;53960;51.826;5.850;2023-04-30T04:44:03;8.74;83.24
67054;SHT31;53960;51.826;5.850;2023-04-30T04:46:30;8.78;83.37
67054;SHT31;53960;51.826;5.850;2023-04-30T04:48:56;8.86;83.23
67054;SHT31;53960;51.826;5.850;2023-04-30T04:51:22;8.82;83.12
67054;SHT31;53960;51.826;5.850;2023-04-30T04:53:48;8.77;83.19
67054;SHT31;53960;51.826;5.850;2023-04-30T04:56:13;8.77;83.52
67054;SHT31;53960;51.826;5.850;2023-04-30T04:58:39;8.75;83.83
67054;SHT31;53960;51.826;5.850;2023-04-30T05:01:05;8.86;83.50
67054;SHT31;53960;51.826;5.850;2023-04-30T05:03:31;8.91;83.38
67054;SHT31;53960;51.826;5.850;2023-04-30T05:05:57;8.92;83.19
67054;SHT31;53960;51.826;5.850;2023-04-30T05:08:22;8.91;83.38
67054;SHT31;53960;51.826;5.850;2023-04-30T05:10:48;8.92;83.29
67054;SHT31;53960;51.826;5.850;2023-04-30T05:13:13;8.86;83.39
67054;SHT31;53960;51.826;5.850;2023-04-30T05:15:38;8.93;83.16
67054;SHT31;53960;51.826;5.850;2023-04-30T05:18:04;8.92;83.44
67054;SHT31;53960;51.826;5.850;2023-04-30T05:20:29;8.92;83.47
67054;SHT31;53960;51.826;5.850;2023-04-30T05:22:54;9.01;83.48
67054;SHT31;53960;51.826;5.850;2023-04-30T05:25:20;9.04;83.49
67054;SHT31;53960;51.826;5.850;2023-04-30T05:27:45;9.01;83.48
67054;SHT31;53960;51.826;5.850;2023-04-30T05:30:11;9.05;83.53
67054;SHT31;53960;51.826;5.850;2023-04-30T05:32:36;9.12;83.46
67054;SHT31;53960;51.826;5.850;2023-04-30T05:35:02;9.14;83.47
67054;SHT31;53960;51.826;5.850;2023-04-30T05:37:27;9.19;83.43
67054;SHT31;53960;51.826;5.850;2023-04-30T05:39:53;9.26;83.48
67054;SHT31;53960;51.826;5.850;2023-04-30T05:42:21;9.27;83.44
67054;SHT31;53960;51.826;5.850;2023-04-30T05:44:47;9.36;83.18
67054;SHT31;53960;51.826;5.850;2023-04-30T05:47:13;9.37;83.17
67054;SHT31;53960;51.826;5.850;2023-04-30T05:49:38;9.43;83.07
67054;SHT31;53960;51.826;5.850;2023-04-30T05:52:04;9.48;83.02
67054;SHT31;53960;51.826;5.850;2023-04-30T05:54:29;9.54;82.89
67054;SHT31;53960;51.826;5.850;2023-04-30T05:56:55;9.61;82.46
67054;SHT31;53960;51.826;5.850;2023-04-30T05:59:20;9.63;82.06
67054;SHT31;53960;51.826;5.850;2023-04-30T06:01:46;9.69;82.39
67054;SHT31;53960;51.826;5.850;2023-04-30T06:04:11;9.71;81.75
67054;SHT31;53960;51.826;5.850;2023-04-30T06:06:36;9.80;81.56
67054;SHT31;53960;51.826;5.850;2023-04-30T06:09:01;9.85;81.26
67054;SHT31;53960;51.826;5.850;2023-04-30T06:11:28;9.83;81.41
67054;SHT31;53960;51.826;5.850;2023-04-30T06:13:54;9.85;81.23
67054;SHT31;53960;51.826;5.850;2023-04-30T06:16:20;9.84;81.04
67054;SHT31;53960;51.826;5.850;2023-04-30T06:18:45;9.87;80.96
67054;SHT31;53960;51.826;5.850;2023-04-30T06:21:10;9.90;80.87
67054;SHT31;53960;51.826;5.850;2023-04-30T06:23:35;9.95;80.91
67054;SHT31;53960;51.826;5.850;2023-04-30T06:26:02;9.95;80.78
67054;SHT31;53960;51.826;5.850;2023-04-30T06:28:27;10.05;80.52
67054;SHT31;53960;51.826;5.850;2023-04-30T06:30:53;10.08;79.70
67054;SHT31;53960;51.826;5.850;2023-04-30T06:33:19;10.14;79.85
67054;SHT31;53960;51.826;5.850;2023-04-30T06:35:44;10.16;79.87
67054;SHT31;53960;51.826;5.850;2023-04-30T06:38:10;10.14;79.35
67054;SHT31;53960;51.826;5.850;2023-04-30T06:40:35;10.21;79.34
67054;SHT31;53960;51.826;5.850;2023-04-30T06:43:01;10.28;79.27
67054;SHT31;53960;51.826;5.850;2023-04-30T06:45:26;10.38;79.09
67054;SHT31;53960;51.826;5.850;2023-04-30T06:47:52;10.43;78.68
67054;SHT31;53960;51.826;5.850;2023-04-30T06:50:18;10.48;78.55
67054;SHT31;53960;51.826;5.850;2023-04-30T06:52:45;10.49;78.89
67054;SHT31;53960;51.826;5.850;2023-04-30T06:55:10;10.52;78.65
67054;SHT31;53960;51.826;5.850;2023-04-30T06:57:36;10.63;78.80
67054;SHT31;53960;51.826;5.850;2023-04-30T07:00:04;10.66;78.92
67054;SHT31;53960;51.826;5.850;2023-04-30T07:02:29;10.72;78.73
67054;SHT31;53960;51.826;5.850;2023-04-30T07:04:55;10.77;78.74
67054;SHT31;53960;51.826;5.850;2023-04-30T07:07:20;10.83;78.61
67054;SHT31;53960;51.826;5.850;2023-04-30T07:09:45;10.93;78.24
67054;SHT31;53960;51.826;5.850;2023-04-30T07:12:11;10.94;78.34
67054;SHT31;53960;51.826;5.850;2023-04-30T07:14:37;10.94;78.25
67054;SHT31;53960;51.826;5.850;2023-04-30T07:17:03;10.96;78.35
67054;SHT31;53960;51.826;5.850;2023-04-30T07:19:28;10.99;78.62
67054;SHT31;53960;51.826;5.850;2023-04-30T07:21:54;11.04;78.72
67054;SHT31;53960;51.826;5.850;2023-04-30T07:24:19;11.20;78.80
67054;SHT31;53960;51.826;5.850;2023-04-30T07:26:44;11.25;78.20
67054;SHT31;53960;51.826;5.850;2023-04-30T07:29:10;11.34;78.49
67054;SHT31;53960;51.826;5.850;2023-04-30T07:31:35;11.31;78.26
67054;SHT31;53960;51.826;5.850;2023-04-30T07:34:01;11.39;77.71
67054;SHT31;53960;51.826;5.850;2023-04-30T07:36:26;11.48;78.07
67054;SHT31;53960;51.826;5.850;2023-04-30T07:38:52;11.52;77.82
67054;SHT31;53960;51.826;5.850;2023-04-30T07:41:17;11.52;77.44
67054;SHT31;53960;51.826;5.850;2023-04-30T07:43:42;11.52;77.55
67054;SHT31;53960;51.826;5.850;2023-04-30T07:46:08;11.61;77.69
67054;SHT31;53960;51.826;5.850;2023-04-30T07:48:33;11.63;77.77
67054;SHT31;53960;51.826;5.850;2023-04-30T07:50:58;11.72;77.99
67054;SHT31;53960;51.826;5.850;2023-04-30T07:53:24;11.68;77.42
67054;SHT31;53960;51.826;5.850;2023-04-30T07:55:49;11.66;77.60
67054;SHT31;53960;51.826;5.850;2023-04-30T07:58:14;11.63;77.83
67054;SHT31;53960;51.826;5.850;2023-04-30T08:00:40;11.65;77.54
67054;SHT31;53960;51.826;5.850;2023-04-30T08:03:05;11.68;77.64
67054;SHT31;53960;51.826;5.850;2023-04-30T08:05:30;11.66;77.44
67054;SHT31;53960;51.826;5.850;2023-04-30T08:07:56;11.71;77.89
67054;SHT31;53960;51.826;5.850;2023-04-30T08:10:21;11.78;77.81
67054;SHT31;53960;51.826;5.850;2023-04-30T08:12:46;11.85;77.36
67054;SHT31;53960;51.826;5.850;2023-04-30T08:15:12;11.87;77.38
67054;SHT31;53960;51.826;5.850;2023-04-30T08:17:37;11.89;77.08
67054;SHT31;53960;51.826;5.850;2023-04-30T08:20:03;11.90;77.14
67054;SHT31;53960;51.826;5.850;2023-04-30T08:22:29;11.96;77.16
67054;SHT31;53960;51.826;5.850;2023-04-30T08:24:54;12.02;77.25
67054;SHT31;53960;51.826;5.850;2023-04-30T08:27:20;12.07;77.17
67054;SHT31;53960;51.826;5.850;2023-04-30T08:29:46;12.21;78.02
67054;SHT31;53960;51.826;5.850;2023-04-30T08:32:11;12.34;77.40
67054;SHT31;53960;51.826;5.850;2023-04-30T08:34:37;12.36;76.43
67054;SHT31;53960;51.826;5.850;2023-04-30T08:37:04;12.34;76.05
67054;SHT31;53960;51.826;5.850;2023-04-30T08:39:30;12.40;76.27
67054;SHT31;53960;51.826;5.850;2023-04-30T08:41:55;12.48;76.43
67054;SHT31;53960;51.826;5.850;2023-04-30T08:44:22;12.57;76.74
67054;SHT31;53960;51.826;5.850;2023-04-30T08:46:56;12.62;76.58
67054;SHT31;53960;51.826;5.850;2023-04-30T08:49:22;12.77;75.53
67054;SHT31;53960;51.826;5.850;2023-04-30T08:51:49;12.81;75.63
67054;SHT31;53960;51.826;5.850;2023-04-30T08:54:16;12.92;75.40
67054;SHT31;53960;51.826;5.850;2023-04-30T08:56:44;13.05;75.19
67054;SHT31;53960;51.826;5.850;2023-04-30T08:59:10;13.08;75.02
67054;SHT31;53960;51.826;5.850;2023-04-30T09:01:36;13.13;74.82
67054;SHT31;53960;51.826;5.850;2023-04-30T09:04:05;13.13;74.88
67054;SHT31;53960;51.826;5.850;2023-04-30T09:06:30;13.19;74.17
67054;SHT31;53960;51.826;5.850;2023-04-30T09:08:56;13.16;74.50
67054;SHT31;53960;51.826;5.850;2023-04-30T09:11:28;13.18;74.58
67054;SHT31;53960;51.826;5.850;2023-04-30T09:13:56;13.27;75.11
67054;SHT31;53960;51.826;5.850;2023-04-30T09:16:23;13.30;74.28
67054;SHT31;53960;51.826;5.850;2023-04-30T09:18:49;13.40;74.80
67054;SHT31;53960;51.826;5.850;2023-04-30T09:21:15;13.47;73.28
67054;SHT31;53960;51.826;5.850;2023-04-30T09:24:00;13.57;74.00
67054;SHT31;53960;51.826;5.850;2023-04-30T09:26:29;13.61;72.79
67054;SHT31;53960;51.826;5.850;2023-04-30T09:28:56;13.56;72.36
67054;SHT31;53960;51.826;5.850;2023-04-30T09:31:22;13.53;72.55
67054;SHT31;53960;51.826;5.850;2023-04-30T09:33:49;13.64;72.81
67054;SHT31;53960;51.826;5.850;2023-04-30T09:36:14;13.67;73.20
67054;SHT31;53960;51.826;5.850;2023-04-30T09:38:40;13.60;72.48
67054;SHT31;53960;51.826;5.850;2023-04-30T09:41:05;13.63;73.20
67054;SHT31;53960;51.826;5.850;2023-04-30T09:43:45;13.71;72.95
67054;SHT31;53960;51.826;5.850;2023-04-30T09:46:10;13.82;72.29
67054;SHT31;53960;51.826;5.850;2023-04-30T09:48:40;13.84;72.10
67054;SHT31;53960;51.826;5.850;2023-04-30T09:51:05;13.92;72.48
67054;SHT31;53960;51.826;5.850;2023-04-30T09:53:32;14.05;72.27
67054;SHT31;53960;51.826;5.850;2023-04-30T09:55:59;14.08;71.01
67054;SHT31;53960;51.826;5.850;2023-04-30T09:58:27;14.02;71.47
67054;SHT31;53960;51.826;5.850;2023-04-30T10:00:57;14.14;71.93
67054;SHT31;53960;51.826;5.850;2023-04-30T10:03:23;14.25;72.01
67054;SHT31;53960;51.826;5.850;2023-04-30T10:05:49;14.36;70.74
67054;SHT31;53960;51.826;5.850;2023-04-30T10:08:24;14.25;70.50
67054;SHT31;53960;51.826;5.850;2023-04-30T10:10:59;14.24;70.89
67054;SHT31;53960;51.826;5.850;2023-04-30T10:13:31;14.35;70.32
67054;SHT31;53960;51.826;5.850;2023-04-30T10:16:06;14.48;70.88
67054;SHT31;53960;51.826;5.850;2023-04-30T10:18:34;14.66;70.94
67054;SHT31;53960;51.826;5.850;2023-04-30T10:21:02;14.60;69.46
67054;SHT31;53960;51.826;5.850;2023-04-30T10:23:35;14.75;70.92
67054;SHT31;53960;51.826;5.850;2023-04-30T10:26:01;14.97;70.57
67054;SHT31;53960;51.826;5.850;2023-04-30T10:28:28;15.01;69.16
67054;SHT31;53960;51.826;5.850;2023-04-30T10:30:54;15.10;70.67
67054;SHT31;53960;51.826;5.850;2023-04-30T10:33:25;15.07;68.31
67054;SHT31;53960;51.826;5.850;2023-04-30T10:35:58;15.01;68.04
67054;SHT31;53960;51.826;5.850;2023-04-30T10:38:29;15.06;68.86
67054;SHT31;53960;51.826;5.850;2023-04-30T10:40:59;15.12;68.41
67054;SHT31;53960;51.826;5.850;2023-04-30T10:43:30;15.12;68.03
67054;SHT31;53960;51.826;5.850;2023-04-30T10:45:56;15.14;67.28
67054;SHT31;53960;51.826;5.850;2023-04-30T10:48:25;15.23;67.86
67054;SHT31;53960;51.826;5.850;2023-04-30T10:50:53;15.35;67.56
67054;SHT31;53960;51.826;5.850;2023-04-30T10:53:20;15.28;67.06
67054;SHT31;53960;51.826;5.850;2023-04-30T10:55:57;15.35;67.20
67054;SHT31;53960;51.826;5.850;2023-04-30T11:00:51;15.45;66.81
67054;SHT31;53960;51.826;5.850;2023-04-30T11:03:24;15.49;66.95
67054;SHT31;53960;51.826;5.850;2023-04-30T11:05:49;15.63;66.95
67054;SHT31;53960;51.826;5.850;2023-04-30T11:08:14;15.66;66.18
67054;SHT31;53960;51.826;5.850;2023-04-30T11:10:56;15.59;66.19
67054;SHT31;53960;51.826;5.850;2023-04-30T11:13:22;15.51;65.86
67054;SHT31;53960;51.826;5.850;2023-04-30T11:15:50;15.58;66.13
67054;SHT31;53960;51.826;5.850;2023-04-30T11:18:17;15.56;66.09
67054;SHT31;53960;51.826;5.850;2023-04-30T11:20:49;15.68;67.06
67054;SHT31;53960;51.826;5.850;2023-04-30T11:23:22;15.79;66.62
67054;SHT31;53960;51.826;5.850;2023-04-30T11:25:48;15.86;65.10
67054;SHT31;53960;51.826;5.850;2023-04-30T11:28:16;15.86;65.30
67054;SHT31;53960;51.826;5.850;2023-04-30T11:30:58;15.99;66.11
67054;SHT31;53960;51.826;5.850;2023-04-30T11:33:25;16.10;65.32
67054;SHT31;53960;51.826;5.850;2023-04-30T11:35:51;16.10;64.67
67054;SHT31;53960;51.826;5.850;2023-04-30T11:38:20;16.09;64.74
67054;SHT31;53960;51.826;5.850;2023-04-30T11:40:49;16.20;65.02
67054;SHT31;53960;51.826;5.850;2023-04-30T11:43:25;16.28;65.35
67054;SHT31;53960;51.826;5.850;2023-04-30T11:48:23;16.28;64.80
67054;SHT31;53960;51.826;5.850;2023-04-30T11:50:48;16.43;66.73
67054;SHT31;53960;51.826;5.850;2023-04-30T11:53:14;16.45;64.46
67054;SHT31;53960;51.826;5.850;2023-04-30T11:55:40;16.36;63.74
67054;SHT31;53960;51.826;5.850;2023-04-30T11:58:08;16.44;65.09
67054;SHT31;53960;51.826;5.850;2023-04-30T12:00:34;16.34;62.95
67054;SHT31;53960;51.826;5.850;2023-04-30T12:03:00;16.40;63.59
67054;SHT31;53960;51.826;5.850;2023-04-30T12:05:27;16.60;65.08
67054;SHT31;53960;51.826;5.850;2023-04-30T12:07:59;16.65;63.87
67054;SHT31;53960;51.826;5.850;2023-04-30T12:10:25;16.54;63.28
67054;SHT31;53960;51.826;5.850;2023-04-30T12:12:51;16.55;63.60
67054;SHT31;53960;51.826;5.850;2023-04-30T12:15:23;16.67;62.77
67054;SHT31;53960;51.826;5.850;2023-04-30T12:17:53;16.60;62.93
67054;SHT31;53960;51.826;5.850;2023-04-30T12:20:20;16.54;63.77
67054;SHT31;53960;51.826;5.850;2023-04-30T12:22:49;16.48;63.22
67054;SHT31;53960;51.826;5.850;2023-04-30T12:25:17;16.64;63.17
67054;SHT31;53960;51.826;5.850;2023-04-30T12:27:52;16.79;63.00
67054;SHT31;53960;51.826;5.850;2023-04-30T12:30:20;17.01;63.36
67054;SHT31;53960;51.826;5.850;2023-04-30T12:32:49;17.02;61.22
67054;SHT31;53960;51.826;5.850;2023-04-30T12:35:19;16.95;60.88
67054;SHT31;53960;51.826;5.850;2023-04-30T12:37:47;16.94;62.09
67054;SHT31;53960;51.826;5.850;2023-04-30T12:40:14;16.99;60.94
67054;SHT31;53960;51.826;5.850;2023-04-30T12:42:41;16.96;61.46
67054;SHT31;53960;51.826;5.850;2023-04-30T12:45:07;17.03;61.28
67054;SHT31;53960;51.826;5.850;2023-04-30T12:47:37;17.08;60.60
67054;SHT31;53960;51.826;5.850;2023-04-30T12:50:09;17.18;60.20
67054;SHT31;53960;51.826;5.850;2023-04-30T12:52:36;17.19;60.49
67054;SHT31;53960;51.826;5.850;2023-04-30T12:55:18;17.18;59.74
67054;SHT31;53960;51.826;5.850;2023-04-30T12:58:17;17.23;60.63
67054;SHT31;53960;51.826;5.850;2023-04-30T13:03:10;16.98;59.13
67054;SHT31;53960;51.826;5.850;2023-04-30T13:05:36;16.82;60.75
67054;SHT31;53960;51.826;5.850;2023-04-30T13:08:02;16.63;60.51
67054;SHT31;53960;51.826;5.850;2023-04-30T13:10:30;16.72;60.29
67054;SHT31;53960;51.826;5.850;2023-04-30T13:12:55;16.96;60.23
67054;SHT31;53960;51.826;5.850;2023-04-30T13:15:21;17.09;60.92
67054;SHT31;53960;51.826;5.850;2023-04-30T13:17:46;17.03;60.64
67054;SHT31;53960;51.826;5.850;2023-04-30T13:20:12;16.85;61.96
67054;SHT31;53960;51.826;5.850;2023-04-30T13:22:37;16.68;61.19
67054;SHT31;53960;51.826;5.850;2023-04-30T13:25:03;16.91;61.66
67054;SHT31;53960;51.826;5.850;2023-04-30T13:27:29;17.12;62.26
67054;SHT31;53960;51.826;5.850;2023-04-30T13:29:54;17.36;59.81
67054;SHT31;53960;51.826;5.850;2023-04-30T13:32:19;17.47;59.05
67054;SHT31;53960;51.826;5.850;2023-04-30T13:34:45;17.60;60.93
67054;SHT31;53960;51.826;5.850;2023-04-30T13:37:10;17.71;58.13
67054;SHT31;53960;51.826;5.850;2023-04-30T13:39:36;17.87;60.00
67054;SHT31;53960;51.826;5.850;2023-04-30T13:42:01;18.01;60.29
67054;SHT31;53960;51.826;5.850;2023-04-30T13:44:26;18.08;59.15
67054;SHT31;53960;51.826;5.850;2023-04-30T13:46:52;18.16;58.52
67054;SHT31;53960;51.826;5.850;2023-04-30T13:49:17;18.15;57.15
67054;SHT31;53960;51.826;5.850;2023-04-30T13:51:42;18.04;57.51
67054;SHT31;53960;51.826;5.850;2023-04-30T13:54:08;17.95;57.54
67054;SHT31;53960;51.826;5.850;2023-04-30T13:56:33;17.88;57.27
67054;SHT31;53960;51.826;5.850;2023-04-30T13:58:58;18.06;58.53
67054;SHT31;53960;51.826;5.850;2023-04-30T14:01:24;18.18;56.81
67054;SHT31;53960;51.826;5.850;2023-04-30T14:03:49;18.36;57.20
67054;SHT31;53960;51.826;5.850;2023-04-30T14:06:15;18.38;57.57
67054;SHT31;53960;51.826;5.850;2023-04-30T14:08:40;18.09;56.04
67054;SHT31;53960;51.826;5.850;2023-04-30T14:11:05;17.80;56.11
67054;SHT31;53960;51.826;5.850;2023-04-30T14:13:31;17.47;56.66
67054;SHT31;53960;51.826;5.850;2023-04-30T14:15:56;17.39;56.50
67054;SHT31;53960;51.826;5.850;2023-04-30T14:18:21;17.62;55.90
67054;SHT31;53960;51.826;5.850;2023-04-30T14:20:47;17.69;57.02
67054;SHT31;53960;51.826;5.850;2023-04-30T14:23:13;17.95;57.12
67054;SHT31;53960;51.826;5.850;2023-04-30T14:25:38;18.16;56.11
67054;SHT31;53960;51.826;5.850;2023-04-30T14:28:03;18.28;56.36
67054;SHT31;53960;51.826;5.850;2023-04-30T14:30:29;18.29;54.76
67054;SHT31;53960;51.826;5.850;2023-04-30T14:32:54;18.22;54.96
67054;SHT31;53960;51.826;5.850;2023-04-30T14:35:20;17.98;55.42
67054;SHT31;53960;51.826;5.850;2023-04-30T14:37:45;17.90;56.29
67054;SHT31;53960;51.826;5.850;2023-04-30T14:40:11;17.78;57.11
67054;SHT31;53960;51.826;5.850;2023-04-30T14:42:36;17.60;56.11
67054;SHT31;53960;51.826;5.850;2023-04-30T14:45:02;17.49;57.26
67054;SHT31;53960;51.826;5.850;2023-04-30T14:47:27;17.59;56.73
67054;SHT31;53960;51.826;5.850;2023-04-30T14:49:53;17.37;55.72
67054;SHT31;53960;51.826;5.850;2023-04-30T14:52:18;17.26;56.29
67054;SHT31;53960;51.826;5.850;2023-04-30T14:54:44;17.09;56.81
67054;SHT31;53960;51.826;5.850;2023-04-30T14:57:10;16.99;56.21
67054;SHT31;53960;51.826;5.850;2023-04-30T14:59:35;16.92;57.53
67054;SHT31;53960;51.826;5.850;2023-04-30T15:02:02;16.91;58.79
67054;SHT31;53960;51.826;5.850;2023-04-30T15:04:28;17.18;58.28
67054;SHT31;53960;51.826;5.850;2023-04-30T15:06:53;17.60;56.11
67054;SHT31;53960;51.826;5.850;2023-04-30T15:09:18;18.00;55.91
67054;SHT31;53960;51.826;5.850;2023-04-30T15:11:44;18.15;53.63
67054;SHT31;53960;51.826;5.850;2023-04-30T15:14:09;18.25;54.52
67054;SHT31;53960;51.826;5.850;2023-04-30T15:16:35;18.01;55.28
67054;SHT31;53960;51.826;5.850;2023-04-30T15:19:01;18.04;55.62
67054;SHT31;53960;51.826;5.850;2023-04-30T15:21:27;18.12;55.16
67054;SHT31;53960;51.826;5.850;2023-04-30T15:23:53;17.83;54.44
67054;SHT31;53960;51.826;5.850;2023-04-30T15:26:19;17.60;53.46
67054;SHT31;53960;51.826;5.850;2023-04-30T15:28:44;17.39;53.04
67054;SHT31;53960;51.826;5.850;2023-04-30T15:31:09;17.22;54.00
67054;SHT31;53960;51.826;5.850;2023-04-30T15:33:35;17.22;54.45
67054;SHT31;53960;51.826;5.850;2023-04-30T15:36:06;17.22;55.32
67054;SHT31;53960;51.826;5.850;2023-04-30T15:38:32;17.50;55.87
67054;SHT31;53960;51.826;5.850;2023-04-30T15:40:57;17.74;55.20
67054;SHT31;53960;51.826;5.850;2023-04-30T15:43:23;17.77;54.16
67054;SHT31;53960;51.826;5.850;2023-04-30T15:45:48;17.74;55.02
67054;SHT31;53960;51.826;5.850;2023-04-30T15:48:14;17.80;54.46
67054;SHT31;53960;51.826;5.850;2023-04-30T15:50:39;17.67;54.64
67054;SHT31;53960;51.826;5.850;2023-04-30T15:53:05;17.54;55.18